createdAt,value
2019-03-29T00:01:32.790Z,99.90
2019-03-29T00:04:02.394Z,99.90
2019-03-29T00:06:32.041Z,99.90
2019-03-29T00:09:02.078Z,99.90
2019-03-29T00:11:32.050Z,99.90
2019-03-29T00:14:01.752Z,99.90
2019-03-29T00:16:31.458Z,99.90
2019-03-29T00:19:01.346Z,99.90
2019-03-29T00:21:32.065Z,99.90
2019-03-29T00:24:06.931Z,99.90
2019-03-29T00:26:33.042Z,99.90
2019-03-29T00:29:03.230Z,99.90
2019-03-29T00:31:33.045Z,99.90
2019-03-29T00:34:02.652Z,99.90
2019-03-29T00:36:32.380Z,99.90
2019-03-29T00:39:01.995Z,99.90
2019-03-29T00:41:31.611Z,99.90
2019-03-29T00:44:01.309Z,99.90
2019-03-29T00:46:31.007Z,99.90
2019-03-29T00:49:00.619Z,99.90
2019-03-29T00:51:30.232Z,99.90
2019-03-29T00:53:59.847Z,99.90
2019-03-29T00:56:29.460Z,99.90
2019-03-29T00:58:59.132Z,99.90
2019-03-29T01:01:28.756Z,99.90
2019-03-29T01:03:58.368Z,99.90
2019-03-29T01:06:27.987Z,99.90
2019-03-29T01:08:57.634Z,99.90
2019-03-29T01:11:27.252Z,99.90
2019-03-29T01:13:56.799Z,99.90
2019-03-29T01:16:27.163Z,99.90
2019-03-29T01:18:57.559Z,99.90
2019-03-29T01:21:27.234Z,99.90
2019-03-29T01:23:56.840Z,99.90
2019-03-29T01:26:27.144Z,99.90
2019-03-29T01:28:56.861Z,99.90
2019-03-29T01:31:26.490Z,99.90
2019-03-29T01:33:56.386Z,99.90
2019-03-29T01:36:26.032Z,99.90
2019-03-29T01:38:55.652Z,99.90
2019-03-29T01:41:25.284Z,99.90
2019-03-29T01:43:54.962Z,99.90
2019-03-29T01:46:24.604Z,99.90
2019-03-29T01:48:54.225Z,99.90
2019-03-29T01:51:23.875Z,99.90
2019-03-29T01:53:53.482Z,99.90
2019-03-29T01:56:23.126Z,99.90
2019-03-29T01:58:52.721Z,99.90
2019-03-29T02:01:22.347Z,99.90
2019-03-29T02:03:51.945Z,99.90
2019-03-29T02:06:21.588Z,99.90
2019-03-29T02:08:51.182Z,99.90
2019-03-29T02:11:20.838Z,99.90
2019-03-29T02:13:51.253Z,99.90
2019-03-29T02:16:21.567Z,99.90
2019-03-29T02:18:51.232Z,99.90
2019-03-29T02:21:20.869Z,99.90
2019-03-29T02:23:50.473Z,99.90
2019-03-29T02:26:20.107Z,99.90
2019-03-29T02:28:49.737Z,99.90
2019-03-29T02:31:19.370Z,99.90
2019-03-29T02:33:48.990Z,99.90
2019-03-29T02:36:18.629Z,99.90
2019-03-29T02:38:55.542Z,99.90
2019-03-29T02:41:19.711Z,99.90
2019-03-29T02:43:49.518Z,99.90
2019-03-29T02:46:19.152Z,99.90
2019-03-29T02:48:48.791Z,99.90
2019-03-29T02:51:18.483Z,99.90
2019-03-29T02:53:48.101Z,99.90
2019-03-29T02:56:17.732Z,99.90
2019-03-29T02:58:47.396Z,99.90
2019-03-29T03:01:17.041Z,99.90
2019-03-29T03:03:46.669Z,99.90
2019-03-29T03:06:16.300Z,99.90
2019-03-29T03:08:45.925Z,99.90
2019-03-29T03:11:15.570Z,99.90
2019-03-29T03:13:45.176Z,99.90
2019-03-29T03:16:14.783Z,99.90
2019-03-29T03:18:44.408Z,99.90
2019-03-29T03:21:14.124Z,99.90
2019-03-29T03:23:43.739Z,99.90
2019-03-29T03:26:13.352Z,99.90
2019-03-29T03:28:42.974Z,99.90
2019-03-29T03:31:12.692Z,99.90
2019-03-29T03:33:42.340Z,99.90
2019-03-29T03:36:12.101Z,99.90
2019-03-29T03:38:41.760Z,99.90
2019-03-29T03:41:11.364Z,99.90
2019-03-29T03:43:40.985Z,99.90
2019-03-29T03:46:10.580Z,99.90
2019-03-29T03:48:40.276Z,99.90
2019-03-29T03:51:09.898Z,99.90
2019-03-29T03:53:39.650Z,99.90
2019-03-29T03:56:10.742Z,99.90
2019-03-29T03:58:41.039Z,99.90
2019-03-29T04:01:10.655Z,99.90
2019-03-29T04:03:40.278Z,99.90
2019-03-29T04:06:09.876Z,99.90
2019-03-29T04:08:39.503Z,99.90
2019-03-29T04:11:09.130Z,99.90
2019-03-29T04:13:38.768Z,99.90
2019-03-29T04:16:08.408Z,99.90
2019-03-29T04:18:38.027Z,99.90
2019-03-29T04:21:07.636Z,99.90
2019-03-29T04:23:37.282Z,99.90
2019-03-29T04:26:06.900Z,99.90
2019-03-29T04:28:36.567Z,99.90
2019-03-29T04:31:06.201Z,99.90
2019-03-29T04:33:35.919Z,99.90
2019-03-29T04:36:05.750Z,99.90
2019-03-29T04:38:35.558Z,99.90
2019-03-29T04:41:05.626Z,99.90
2019-03-29T04:43:35.258Z,99.90
2019-03-29T04:46:04.887Z,99.90
2019-03-29T04:48:34.469Z,99.90
2019-03-29T04:51:04.095Z,99.90
2019-03-29T04:53:33.749Z,99.90
2019-03-29T04:56:03.383Z,99.90
2019-03-29T04:58:33.046Z,99.90
2019-03-29T05:01:02.665Z,99.90
2019-03-29T05:03:32.307Z,99.90
2019-03-29T05:06:01.988Z,99.90
2019-03-29T05:08:31.644Z,99.90
2019-03-29T05:11:01.273Z,99.90
2019-03-29T05:13:30.901Z,99.90
2019-03-29T05:16:00.523Z,99.90
2019-03-29T05:18:30.161Z,99.90
2019-03-29T05:20:59.801Z,99.90
2019-03-29T05:23:29.425Z,99.90
2019-03-29T05:25:59.065Z,99.90
2019-03-29T05:28:28.719Z,99.90
2019-03-29T05:30:58.335Z,99.90
2019-03-29T05:33:27.971Z,99.90
2019-03-29T05:35:57.586Z,99.90
2019-03-29T05:38:27.243Z,99.90
2019-03-29T05:40:56.861Z,99.90
2019-03-29T05:43:26.611Z,99.90
2019-03-29T05:45:56.231Z,99.90
2019-03-29T05:48:25.933Z,99.90
2019-03-29T05:50:55.563Z,99.90
2019-03-29T05:53:25.133Z,99.90
2019-03-29T05:55:54.788Z,99.90
2019-03-29T05:58:24.477Z,99.90
2019-03-29T06:00:54.225Z,99.90
2019-03-29T06:03:23.887Z,99.90
2019-03-29T06:05:53.541Z,99.90
2019-03-29T06:08:23.165Z,99.90
2019-03-29T06:10:52.867Z,99.90
2019-03-29T06:13:22.517Z,99.90
2019-03-29T06:15:52.216Z,99.90
2019-03-29T06:18:21.872Z,99.90
2019-03-29T06:20:51.516Z,99.90
2019-03-29T06:23:21.197Z,99.90
2019-03-29T06:25:50.916Z,99.90
2019-03-29T06:28:20.560Z,99.90
2019-03-29T06:30:50.199Z,99.90
2019-03-29T06:33:19.810Z,99.90
2019-03-29T06:35:51.945Z,99.90
2019-03-29T06:38:24.738Z,99.90
2019-03-29T06:41:02.834Z,99.90
2019-03-29T06:43:25.753Z,99.90
2019-03-29T06:45:55.382Z,99.90
2019-03-29T06:48:25.025Z,99.90
2019-03-29T06:50:54.684Z,99.90
2019-03-29T06:53:24.309Z,99.90
2019-03-29T06:55:53.851Z,99.90
2019-03-29T06:58:23.519Z,99.90
2019-03-29T07:00:53.160Z,99.90
2019-03-29T07:03:22.798Z,99.90
2019-03-29T07:05:52.431Z,99.90
2019-03-29T07:08:22.024Z,99.90
2019-03-29T07:10:51.678Z,99.90
2019-03-29T07:13:21.297Z,99.90
2019-03-29T07:15:51.014Z,99.90
2019-03-29T07:18:20.922Z,99.90
2019-03-29T07:20:50.502Z,99.90
2019-03-29T07:23:20.102Z,99.90
2019-03-29T07:25:50.132Z,99.90
2019-03-29T07:28:19.766Z,99.90
2019-03-29T07:30:49.390Z,99.90
2019-03-29T07:33:18.996Z,99.90
2019-03-29T07:35:48.642Z,99.90
2019-03-29T07:38:18.272Z,99.90
2019-03-29T07:40:47.880Z,99.90
2019-03-29T07:43:17.484Z,99.90
2019-03-29T07:45:47.100Z,99.90
2019-03-29T07:48:16.714Z,99.90
2019-03-29T07:50:46.354Z,99.90
2019-03-29T07:53:15.974Z,99.90
2019-03-29T07:55:45.592Z,99.90
2019-03-29T07:58:15.198Z,99.90
2019-03-29T08:00:44.823Z,99.90
2019-03-29T08:03:14.441Z,99.90
2019-03-29T08:05:45.172Z,99.90
2019-03-29T08:08:23.887Z,99.90
2019-03-29T08:10:46.222Z,99.90
2019-03-29T08:13:16.270Z,99.90
2019-03-29T08:15:46.290Z,99.90
2019-03-29T08:18:15.903Z,99.90
2019-03-29T08:20:45.767Z,99.90
2019-03-29T08:23:15.399Z,99.90
2019-03-29T08:25:45.030Z,99.90
2019-03-29T08:28:14.654Z,99.90
2019-03-29T08:30:44.280Z,99.90
2019-03-29T08:33:13.886Z,99.90
2019-03-29T08:35:43.548Z,99.90
2019-03-29T08:38:13.174Z,99.90
2019-03-29T08:40:45.211Z,99.90
2019-03-29T08:43:14.141Z,99.90
2019-03-29T08:45:43.752Z,99.90
2019-03-29T08:48:13.430Z,99.90
2019-03-29T08:50:43.069Z,99.90
2019-03-29T08:53:12.694Z,99.90
2019-03-29T08:55:46.161Z,99.90
2019-03-29T08:58:13.948Z,99.90
2019-03-29T09:00:43.585Z,99.90
2019-03-29T09:03:13.407Z,99.90
2019-03-29T09:05:43.237Z,99.90
2019-03-29T09:08:12.871Z,99.90
2019-03-29T09:10:42.504Z,99.90
2019-03-29T09:13:12.116Z,99.90
2019-03-29T09:15:41.756Z,99.90
2019-03-29T09:18:11.488Z,99.90
2019-03-29T09:20:41.296Z,99.90
2019-03-29T09:23:10.914Z,99.90
2019-03-29T09:25:40.723Z,99.90
2019-03-29T09:28:10.470Z,99.90
2019-03-29T09:30:40.087Z,99.90
2019-03-29T09:33:09.687Z,99.90
2019-03-29T09:35:42.579Z,99.90
2019-03-29T09:38:10.658Z,99.90
2019-03-29T09:40:40.374Z,99.90
2019-03-29T09:43:10.224Z,99.90
2019-03-29T09:45:41.289Z,99.90
2019-03-29T09:48:11.035Z,99.90
2019-03-29T09:50:40.761Z,99.90
2019-03-29T09:53:10.370Z,99.90
2019-03-29T09:55:40.014Z,99.90
2019-03-29T09:58:09.643Z,99.90
2019-03-29T10:00:39.289Z,99.90
2019-03-29T10:03:08.900Z,99.90
2019-03-29T10:05:38.535Z,99.90
2019-03-29T10:08:08.105Z,99.90
2019-03-29T10:10:37.723Z,99.90
2019-03-29T10:13:07.377Z,99.90
2019-03-29T10:15:36.984Z,99.90
2019-03-29T10:18:06.591Z,99.90
2019-03-29T10:20:36.221Z,99.90
2019-03-29T10:23:05.841Z,99.90
2019-03-29T10:25:35.479Z,99.90
2019-03-29T10:28:05.288Z,99.90
2019-03-29T10:30:46.277Z,99.90
2019-03-29T10:33:14.493Z,99.90
2019-03-29T10:35:52.282Z,99.90
2019-03-29T10:38:18.145Z,99.90
2019-03-29T10:40:46.838Z,99.90
2019-03-29T10:43:16.639Z,99.90
2019-03-29T10:45:46.360Z,99.90
2019-03-29T10:48:16.032Z,99.90
2019-03-29T10:50:45.647Z,99.90
2019-03-29T10:53:15.299Z,99.90
2019-03-29T10:55:44.961Z,99.90
2019-03-29T10:58:14.667Z,99.90
2019-03-29T11:00:44.287Z,98.70
2019-03-29T11:03:13.901Z,95.10
2019-03-29T11:05:43.587Z,93.70
2019-03-29T11:08:13.201Z,84.40
2019-03-29T11:10:42.860Z,79.00
2019-03-29T11:13:14.204Z,82.10
2019-03-29T11:15:43.831Z,78.20
2019-03-29T11:18:13.547Z,77.70
2019-03-29T11:20:43.156Z,82.10
2019-03-29T11:23:12.751Z,78.40
2019-03-29T11:25:42.381Z,80.40
2019-03-29T11:28:12.085Z,81.50
2019-03-29T11:30:43.128Z,73.70
2019-03-29T11:33:13.167Z,76.70
2019-03-29T11:35:42.821Z,79.00
2019-03-29T11:38:12.449Z,81.50
2019-03-29T11:40:42.070Z,82.20
2019-03-29T11:43:25.749Z,80.90
2019-03-29T11:45:43.093Z,80.00
2019-03-29T11:48:12.703Z,80.10
2019-03-29T11:50:42.336Z,79.30
2019-03-29T11:53:12.012Z,77.50
2019-03-29T11:55:41.631Z,78.90
2019-03-29T11:58:11.247Z,78.70
2019-03-29T12:00:41.305Z,78.90
2019-03-29T12:03:10.918Z,78.20
2019-03-29T12:05:40.655Z,78.80
2019-03-29T12:08:10.307Z,79.60
2019-03-29T12:10:39.925Z,82.30
2019-03-29T12:13:10.285Z,77.00
2019-03-29T12:15:40.189Z,80.60
2019-03-29T12:18:09.808Z,77.10
2019-03-29T12:20:39.519Z,77.00
2019-03-29T12:23:09.226Z,77.80
2019-03-29T12:25:38.855Z,77.90
2019-03-29T12:28:08.645Z,77.90
2019-03-29T12:30:39.179Z,79.10
2019-03-29T12:33:08.807Z,78.00
2019-03-29T12:35:38.427Z,76.80
2019-03-29T12:38:08.070Z,79.40
2019-03-29T12:40:37.694Z,79.20
2019-03-29T12:43:07.312Z,78.90
2019-03-29T12:45:37.366Z,77.50
2019-03-29T12:48:07.203Z,74.00
2019-03-29T12:50:36.947Z,73.70
2019-03-29T12:53:06.647Z,69.90
2019-03-29T12:55:36.777Z,69.50
2019-03-29T12:58:06.504Z,69.40
2019-03-29T13:00:36.377Z,70.90
2019-03-29T13:03:06.093Z,72.20
2019-03-29T13:05:35.749Z,70.80
2019-03-29T13:08:05.393Z,70.90
2019-03-29T13:10:35.101Z,69.50
2019-03-29T13:13:04.742Z,68.90
2019-03-29T13:15:34.427Z,69.00
2019-03-29T13:18:04.086Z,71.00
2019-03-29T13:20:33.732Z,71.40
2019-03-29T13:23:03.438Z,68.90
2019-03-29T13:25:33.136Z,68.70
2019-03-29T13:28:02.794Z,67.80
2019-03-29T13:30:32.544Z,70.00
2019-03-29T13:33:02.204Z,69.00
2019-03-29T13:35:31.835Z,68.10
2019-03-29T13:38:01.449Z,69.20
2019-03-29T13:40:31.073Z,69.60
2019-03-29T13:43:00.682Z,69.10
2019-03-29T13:45:30.292Z,69.10
2019-03-29T13:47:59.964Z,68.70
2019-03-29T13:50:29.615Z,68.50
2019-03-29T13:52:59.265Z,67.10
2019-03-29T13:55:28.986Z,67.90
2019-03-29T13:57:58.633Z,67.70
2019-03-29T14:00:28.268Z,69.40
2019-03-29T14:02:57.957Z,69.40
2019-03-29T14:05:27.595Z,67.40
2019-03-29T14:07:57.231Z,65.40
2019-03-29T14:10:26.841Z,65.50
2019-03-29T14:12:56.473Z,66.20
2019-03-29T14:15:26.089Z,64.00
2019-03-29T14:17:55.693Z,64.20
2019-03-29T14:20:35.243Z,63.10
2019-03-29T14:23:04.895Z,65.60
2019-03-29T14:25:34.526Z,65.20
2019-03-29T14:28:04.610Z,64.20
2019-03-29T14:30:34.284Z,64.40
2019-03-29T14:33:03.890Z,63.30
2019-03-29T14:35:33.549Z,63.40
2019-03-29T14:38:03.160Z,62.00
2019-03-29T14:40:32.778Z,62.70
2019-03-29T14:43:02.476Z,61.40
2019-03-29T14:45:32.195Z,60.40
2019-03-29T14:48:01.849Z,59.50
2019-03-29T14:50:31.474Z,60.20
2019-03-29T14:53:01.099Z,60.70
2019-03-29T14:55:30.714Z,59.60
2019-03-29T14:58:00.324Z,59.30
2019-03-29T15:00:40.800Z,60.20
2019-03-29T15:03:10.453Z,60.00
2019-03-29T15:05:40.489Z,58.70
2019-03-29T15:08:10.303Z,57.40
2019-03-29T15:10:39.933Z,58.40
2019-03-29T15:13:09.563Z,59.80
2019-03-29T15:15:39.186Z,60.10
2019-03-29T15:18:08.814Z,60.30
2019-03-29T15:20:52.124Z,60.60
2019-03-29T15:23:09.779Z,60.70
2019-03-29T15:25:40.742Z,61.30
2019-03-29T15:28:10.694Z,60.80
2019-03-29T15:30:40.423Z,60.60
2019-03-29T15:33:10.122Z,61.10
2019-03-29T15:35:39.733Z,61.40
2019-03-29T15:38:09.370Z,61.50
2019-03-29T15:40:39.019Z,62.10
2019-03-29T15:43:08.636Z,61.60
2019-03-29T15:45:38.288Z,63.00
2019-03-29T15:48:07.930Z,63.50
2019-03-29T15:50:37.623Z,63.90
2019-03-29T15:53:07.418Z,64.10
2019-03-29T15:55:37.045Z,64.20
2019-03-29T15:58:06.691Z,64.10
2019-03-29T16:00:36.450Z,63.10
2019-03-29T16:03:06.100Z,63.10
2019-03-29T16:05:35.722Z,62.00
2019-03-29T16:08:05.446Z,61.40
2019-03-29T16:10:35.068Z,62.00
2019-03-29T16:13:05.140Z,62.30
2019-03-29T16:15:38.198Z,63.10
2019-03-29T16:18:06.172Z,63.90
2019-03-29T16:20:35.838Z,63.50
2019-03-29T16:23:05.454Z,64.00
2019-03-29T16:25:35.170Z,63.70
2019-03-29T16:28:04.824Z,63.80
2019-03-29T16:30:34.543Z,63.80
2019-03-29T16:33:04.260Z,64.20
2019-03-29T16:35:33.898Z,64.20
2019-03-29T16:38:03.525Z,64.10
2019-03-29T16:40:33.141Z,63.50
2019-03-29T16:43:02.762Z,64.40
2019-03-29T16:45:32.504Z,64.40
2019-03-29T16:48:02.162Z,63.50
2019-03-29T16:50:31.798Z,63.00
2019-03-29T16:53:01.411Z,63.70
2019-03-29T16:55:31.095Z,64.40
2019-03-29T16:58:00.734Z,65.00
2019-03-29T17:00:30.368Z,65.80
2019-03-29T17:02:59.990Z,66.30
2019-03-29T17:05:29.618Z,66.80
2019-03-29T17:07:59.233Z,67.10
2019-03-29T17:10:28.876Z,67.90
2019-03-29T17:12:58.473Z,68.20
2019-03-29T17:15:28.123Z,69.00
2019-03-29T17:17:57.827Z,69.60
2019-03-29T17:20:27.540Z,70.30
2019-03-29T17:22:57.200Z,70.50
2019-03-29T17:25:26.845Z,70.60
2019-03-29T17:27:56.491Z,71.00
2019-03-29T17:30:43.290Z,71.50
2019-03-29T17:33:13.010Z,72.30
2019-03-29T17:35:42.691Z,72.60
2019-03-29T17:38:12.353Z,73.30
2019-03-29T17:40:42.088Z,73.80
2019-03-29T17:43:11.742Z,74.60
2019-03-29T17:45:41.386Z,75.50
2019-03-29T17:48:11.129Z,76.50
2019-03-29T17:50:40.833Z,77.70
2019-03-29T17:53:10.440Z,78.60
2019-03-29T17:55:40.176Z,79.60
2019-03-29T17:58:09.815Z,80.70
2019-03-29T18:00:39.520Z,82.10
2019-03-29T18:03:09.214Z,83.60
2019-03-29T18:05:38.936Z,85.60
2019-03-29T18:08:08.570Z,87.90
2019-03-29T18:10:38.312Z,90.10
2019-03-29T18:13:13.449Z,91.30
2019-03-29T18:15:43.108Z,92.70
2019-03-29T18:18:13.204Z,94.20
2019-03-29T18:20:43.238Z,95.90
2019-03-29T18:23:12.923Z,97.50
2019-03-29T18:25:42.612Z,98.90
2019-03-29T18:28:12.302Z,99.80
2019-03-29T18:30:43.303Z,99.90
2019-03-29T18:33:12.975Z,99.90
2019-03-29T18:35:42.623Z,99.90
2019-03-29T18:38:12.377Z,99.90
2019-03-29T18:40:42.141Z,99.90
2019-03-29T18:43:11.853Z,99.90
2019-03-29T18:45:41.985Z,99.90
2019-03-29T18:48:11.737Z,99.90
2019-03-29T18:50:41.511Z,99.90
2019-03-29T18:53:11.407Z,99.90
2019-03-29T18:55:41.090Z,99.90
2019-03-29T18:58:10.926Z,99.90
2019-03-29T19:00:40.551Z,99.90
2019-03-29T19:03:11.965Z,99.90
2019-03-29T19:05:41.630Z,99.90
2019-03-29T19:08:11.248Z,99.90
2019-03-29T19:10:40.947Z,99.90
2019-03-29T19:13:10.593Z,99.90
2019-03-29T19:15:40.200Z,99.90
2019-03-29T19:18:09.843Z,99.90
2019-03-29T19:20:39.538Z,99.90
2019-03-29T19:23:09.180Z,99.90
2019-03-29T19:25:38.951Z,99.90
2019-03-29T19:28:08.578Z,99.90
2019-03-29T19:30:38.235Z,99.90
2019-03-29T19:33:07.875Z,99.90
2019-03-29T19:35:37.519Z,99.90
2019-03-29T19:38:07.200Z,99.90
2019-03-29T19:40:36.852Z,99.90
2019-03-29T19:43:06.494Z,99.90
2019-03-29T19:45:36.138Z,99.90
2019-03-29T19:48:05.759Z,99.90
2019-03-29T19:50:35.381Z,99.90
2019-03-29T19:53:05.004Z,99.90
2019-03-29T19:55:35.233Z,99.90
2019-03-29T19:58:04.975Z,99.90
2019-03-29T20:00:41.060Z,99.90
2019-03-29T20:03:10.869Z,99.90
2019-03-29T20:05:41.164Z,99.90
2019-03-29T20:08:10.815Z,99.90
2019-03-29T20:10:40.454Z,99.90
2019-03-29T20:13:10.176Z,99.90
2019-03-29T20:15:39.795Z,99.90
2019-03-29T20:18:09.427Z,99.90
2019-03-29T20:20:39.075Z,99.90
2019-03-29T20:23:08.766Z,99.90
2019-03-29T20:25:38.410Z,99.90
2019-03-29T20:28:07.258Z,99.90
2019-03-29T20:30:36.991Z,99.90
2019-03-29T20:33:06.623Z,99.90
2019-03-29T20:35:36.347Z,99.90
2019-03-29T20:38:05.992Z,99.90
2019-03-29T20:40:35.624Z,99.90
2019-03-29T20:43:05.295Z,99.90
2019-03-29T20:45:34.971Z,99.90
2019-03-29T20:48:04.669Z,99.90
2019-03-29T20:50:34.318Z,99.90
2019-03-29T20:53:04.043Z,99.90
2019-03-29T20:55:33.665Z,99.90
2019-03-29T20:58:03.318Z,99.90
2019-03-29T21:00:32.856Z,99.90
2019-03-29T21:03:02.635Z,99.90
2019-03-29T21:05:32.339Z,99.90
2019-03-29T21:08:02.023Z,99.90
2019-03-29T21:10:31.625Z,99.90
2019-03-29T21:13:01.249Z,99.90
2019-03-29T21:15:30.860Z,99.90
2019-03-29T21:18:00.559Z,99.90
2019-03-29T21:20:30.212Z,99.90
2019-03-29T21:22:59.829Z,99.90
2019-03-29T21:25:29.665Z,99.90
2019-03-29T21:27:59.316Z,99.90
2019-03-29T21:30:29.071Z,99.90
2019-03-29T21:32:58.684Z,99.90
2019-03-29T21:35:28.423Z,99.90
2019-03-29T21:37:58.040Z,99.90
2019-03-29T21:40:27.743Z,99.90
2019-03-29T21:42:57.394Z,99.90
2019-03-29T21:45:28.935Z,99.90
2019-03-29T21:48:08.823Z,99.90
2019-03-29T21:50:29.955Z,99.90
2019-03-29T21:52:59.702Z,99.90
2019-03-29T21:55:29.310Z,99.90
2019-03-29T21:57:58.937Z,99.90
2019-03-29T22:00:28.557Z,99.90
2019-03-29T22:02:58.121Z,99.90
2019-03-29T22:05:27.740Z,99.90
2019-03-29T22:07:57.441Z,99.90
2019-03-29T22:10:27.125Z,99.90
2019-03-29T22:12:56.768Z,99.90
2019-03-29T22:15:26.412Z,99.90
2019-03-29T22:17:56.177Z,99.90
2019-03-29T22:20:25.807Z,99.90
2019-03-29T22:22:55.359Z,99.90
2019-03-29T22:25:25.067Z,99.90
2019-03-29T22:27:54.784Z,99.90
2019-03-29T22:30:24.404Z,99.90
2019-03-29T22:32:54.035Z,99.90
2019-03-29T22:35:23.796Z,99.90
2019-03-29T22:37:53.503Z,99.90
2019-03-29T22:40:23.242Z,99.90
2019-03-29T22:42:52.870Z,99.90
2019-03-29T22:45:22.561Z,99.90
2019-03-29T22:47:52.264Z,99.90
2019-03-29T22:50:21.905Z,99.90
2019-03-29T22:52:54.432Z,99.90
2019-03-29T22:55:22.906Z,99.90
2019-03-29T22:57:52.533Z,99.90
2019-03-29T23:00:32.261Z,99.90
2019-03-29T23:03:01.927Z,99.90
2019-03-29T23:05:31.547Z,99.90
2019-03-29T23:08:01.211Z,99.90
2019-03-29T23:10:30.834Z,99.90
2019-03-29T23:13:00.450Z,99.90
2019-03-29T23:15:30.227Z,99.90
2019-03-29T23:17:59.844Z,99.90
2019-03-29T23:20:29.476Z,99.90
2019-03-29T23:22:59.107Z,99.90
2019-03-29T23:25:28.734Z,99.90
2019-03-29T23:27:58.365Z,99.90
2019-03-29T23:30:28.082Z,99.90
2019-03-29T23:32:57.684Z,99.90
2019-03-29T23:35:27.308Z,99.90
2019-03-29T23:37:56.912Z,99.90
2019-03-29T23:40:26.543Z,99.90
2019-03-29T23:42:56.211Z,99.90
2019-03-29T23:45:25.839Z,99.90
2019-03-29T23:47:55.512Z,99.90
2019-03-29T23:50:25.293Z,99.90
2019-03-29T23:52:54.912Z,99.90
2019-03-29T23:55:24.582Z,99.90
2019-03-29T23:57:54.319Z,99.90
